createdAt,value
2023-10-09T00:01:18.917Z,15.00
2023-10-09T00:04:21.802Z,14.07
2023-10-09T00:07:24.352Z,12.57
2023-10-09T00:10:36.199Z,15.98
2023-10-09T00:13:38.606Z,12.00
2023-10-09T00:16:57.484Z,17.38
2023-10-09T00:20:01.440Z,12.25
2023-10-09T00:23:03.241Z,11.18
2023-10-09T00:26:17.333Z,12.85
2023-10-09T00:29:24.648Z,19.02
2023-10-09T00:32:27.874Z,15.75
2023-10-09T00:35:39.031Z,16.63
2023-10-09T00:38:50.237Z,13.05
2023-10-09T00:41:51.597Z,13.65
2023-10-09T00:44:52.913Z,13.30
2023-10-09T00:47:58.454Z,12.35
2023-10-09T00:51:01.286Z,12.93
2023-10-09T00:54:08.361Z,12.57
2023-10-09T00:57:14.486Z,12.75
2023-10-09T01:00:32.914Z,11.07
2023-10-09T01:03:35.070Z,11.55
2023-10-09T01:06:44.399Z,15.18
2023-10-09T01:09:46.088Z,13.18
2023-10-09T01:12:49.266Z,11.98
2023-10-09T01:15:52.921Z,11.18
2023-10-09T01:18:58.082Z,13.32
2023-10-09T01:22:13.333Z,13.63
2023-10-09T01:25:14.692Z,13.18
2023-10-09T01:28:16.828Z,11.38
2023-10-09T01:31:21.866Z,14.00
2023-10-09T01:34:35.844Z,12.95
2023-10-09T01:37:38.256Z,12.10
2023-10-09T01:40:39.620Z,15.15
2023-10-09T01:43:45.738Z,14.48
2023-10-09T01:46:47.069Z,14.80
2023-10-09T01:49:53.881Z,17.33
2023-10-09T01:52:55.230Z,12.73
2023-10-09T01:55:56.714Z,13.52
2023-10-09T01:59:03.547Z,15.18
2023-10-09T02:02:29.028Z,17.63
2023-10-09T02:05:34.706Z,12.70
2023-10-09T02:08:37.112Z,14.18
2023-10-09T02:11:42.502Z,14.23
2023-10-09T02:14:45.230Z,15.02
2023-10-09T02:18:02.153Z,16.65
2023-10-09T02:21:03.709Z,16.27
2023-10-09T02:24:06.989Z,15.40
2023-10-09T02:27:08.449Z,14.35
2023-10-09T02:30:38.908Z,15.63
2023-10-09T02:33:40.592Z,15.43
2023-10-09T02:36:50.041Z,17.08
2023-10-09T02:39:53.593Z,14.02
2023-10-09T02:42:54.932Z,16.05
2023-10-09T02:45:56.284Z,12.82
2023-10-09T02:49:04.307Z,16.92
2023-10-09T02:52:08.634Z,13.18
2023-10-09T02:58:22.020Z,13.45
2023-10-09T03:01:23.333Z,17.30
2023-10-09T03:04:25.554Z,16.92
2023-10-09T03:07:27.192Z,13.60
2023-10-09T03:10:28.517Z,13.88
2023-10-09T03:13:33.028Z,14.93
2023-10-09T03:16:34.481Z,18.10
2023-10-09T03:19:38.673Z,10.48
2023-10-09T03:22:41.016Z,15.10
2023-10-09T03:25:46.487Z,11.95
2023-10-09T03:28:48.220Z,12.55
2023-10-09T03:31:51.693Z,11.18
2023-10-09T03:34:53.177Z,11.23
2023-10-09T03:37:58.350Z,10.27
2023-10-09T03:41:01.894Z,12.77
2023-10-09T03:44:03.487Z,11.50
2023-10-09T03:47:06.122Z,11.13
2023-10-09T03:50:24.868Z,12.95
2023-10-09T03:53:26.838Z,13.00
2023-10-09T03:56:28.183Z,12.18
2023-10-09T03:59:31.707Z,10.60
2023-10-09T04:02:33.055Z,10.90
2023-10-09T04:05:34.390Z,14.20
2023-10-09T04:08:36.543Z,13.20
2023-10-09T04:11:40.544Z,14.00
2023-10-09T04:14:55.611Z,12.18
2023-10-09T04:17:58.120Z,12.27
2023-10-09T04:21:18.226Z,9.63
2023-10-09T04:24:19.624Z,11.88
2023-10-09T04:27:27.928Z,15.63
2023-10-09T04:30:29.487Z,11.15
2023-10-09T04:33:31.362Z,17.63
2023-10-09T04:36:47.143Z,13.73
2023-10-09T04:40:11.380Z,10.50
2023-10-09T04:43:21.430Z,14.38
2023-10-09T04:46:24.574Z,13.65
2023-10-09T04:49:28.981Z,10.63
2023-10-09T04:55:58.622Z,15.05
2023-10-09T04:59:04.741Z,12.60
2023-10-09T05:02:08.024Z,10.43
2023-10-09T05:05:38.168Z,13.52
2023-10-09T05:08:47.050Z,13.15
2023-10-09T05:11:54.756Z,13.13
2023-10-09T05:15:14.256Z,19.08
2023-10-09T05:18:17.400Z,18.52
2023-10-09T05:21:34.453Z,14.52
2023-10-09T05:24:46.411Z,13.38
2023-10-09T05:27:51.850Z,13.07
2023-10-09T05:31:09.318Z,17.67
2023-10-09T05:34:13.410Z,15.18
2023-10-09T05:37:26.152Z,15.60
2023-10-09T05:40:32.139Z,14.75
2023-10-09T05:43:52.143Z,11.82
2023-10-09T05:47:12.207Z,12.88
2023-10-09T05:50:16.428Z,13.38
2023-10-09T05:53:36.098Z,15.15
2023-10-09T05:56:56.015Z,13.05
2023-10-09T06:00:32.631Z,20.38
2023-10-09T06:03:52.817Z,15.95
2023-10-09T06:06:57.685Z,12.45
2023-10-09T06:10:11.619Z,11.77
2023-10-09T06:13:32.956Z,12.80
2023-10-09T06:16:40.577Z,10.23
2023-10-09T06:19:44.417Z,13.52
2023-10-09T06:22:58.075Z,12.93
2023-10-09T06:26:06.789Z,7.50
2023-10-09T06:29:18.391Z,11.07
2023-10-09T06:32:20.168Z,11.90
2023-10-09T06:35:31.517Z,14.43
2023-10-09T06:38:53.398Z,11.93
2023-10-09T06:42:10.057Z,11.57
2023-10-09T06:45:15.370Z,10.27
2023-10-09T06:48:35.343Z,12.50
2023-10-09T06:51:42.037Z,14.57
2023-10-09T06:54:50.899Z,12.75
2023-10-09T06:57:55.493Z,12.32
2023-10-09T07:00:59.974Z,15.98
2023-10-09T07:04:11.914Z,10.65
2023-10-09T07:07:22.108Z,9.25
2023-10-09T07:10:34.423Z,12.48
2023-10-09T07:13:38.214Z,12.85
2023-10-09T07:16:39.837Z,14.50
2023-10-09T07:19:41.325Z,12.07
2023-10-09T07:22:57.393Z,10.85
2023-10-09T07:26:18.633Z,13.40
2023-10-09T07:29:24.052Z,12.52
2023-10-09T07:32:28.646Z,8.65
2023-10-09T07:35:44.079Z,11.23
2023-10-09T07:38:46.671Z,9.60
2023-10-09T07:41:57.546Z,12.57
2023-10-09T07:44:59.374Z,8.68
2023-10-09T07:48:00.951Z,14.98
2023-10-09T07:51:06.356Z,12.68
2023-10-09T07:54:10.767Z,9.30
2023-10-09T07:57:17.454Z,10.77
2023-10-09T08:00:37.550Z,9.65
2023-10-09T08:03:39.320Z,12.95
2023-10-09T08:07:01.970Z,11.45
2023-10-09T08:10:20.405Z,9.10
2023-10-09T08:13:40.543Z,10.48
2023-10-09T08:16:42.646Z,11.38
2023-10-09T08:19:57.454Z,10.75
2023-10-09T08:22:58.874Z,10.27
2023-10-09T08:26:13.693Z,14.02
2023-10-09T08:29:18.920Z,11.63
2023-10-09T08:35:50.814Z,15.98
2023-10-09T08:38:53.330Z,13.88
2023-10-09T08:41:58.936Z,9.52
2023-10-09T08:45:04.631Z,17.63
2023-10-09T08:48:07.256Z,19.30
2023-10-09T08:51:10.092Z,22.75
2023-10-09T08:54:12.954Z,14.10
2023-10-09T08:57:19.765Z,22.08
2023-10-09T09:00:26.943Z,14.65
2023-10-09T09:03:38.063Z,15.32
2023-10-09T09:06:42.285Z,11.85
2023-10-09T09:09:56.310Z,8.90
2023-10-09T09:13:04.810Z,14.32
2023-10-09T09:16:08.312Z,14.15
2023-10-09T09:19:09.776Z,12.77
2023-10-09T09:22:14.204Z,9.68
2023-10-09T09:25:16.752Z,12.38
2023-10-09T09:28:22.598Z,17.70
2023-10-09T09:31:24.156Z,12.60
2023-10-09T09:34:30.344Z,13.35
2023-10-09T09:37:51.525Z,13.27
2023-10-09T09:40:55.238Z,12.77
2023-10-09T09:43:57.677Z,12.52
2023-10-09T09:47:00.934Z,11.55
2023-10-09T09:50:06.457Z,11.43
2023-10-09T09:53:09.560Z,8.27
2023-10-09T09:56:17.985Z,13.25
2023-10-09T09:59:23.129Z,10.50
2023-10-09T10:02:34.910Z,9.95
2023-10-09T10:05:38.296Z,14.73
2023-10-09T10:08:42.025Z,13.25
2023-10-09T10:11:55.612Z,14.25
2023-10-09T10:15:06.809Z,13.25
2023-10-09T10:18:10.571Z,11.40
2023-10-09T10:21:17.172Z,10.80
2023-10-09T10:24:31.740Z,14.90
2023-10-09T10:27:46.064Z,18.33
2023-10-09T10:30:47.767Z,12.95
2023-10-09T10:33:56.035Z,9.30
2023-10-09T10:37:00.691Z,15.85
2023-10-09T10:40:02.553Z,9.90
2023-10-09T10:43:33.224Z,13.10
2023-10-09T10:46:44.011Z,9.93
2023-10-09T10:49:46.113Z,12.75
2023-10-09T10:52:58.522Z,12.00
2023-10-09T10:56:13.221Z,13.25
2023-10-09T10:59:15.246Z,14.60
2023-10-09T11:02:17.716Z,23.65
2023-10-09T11:05:24.988Z,25.10
2023-10-09T11:08:33.358Z,15.80
2023-10-09T11:11:42.174Z,11.15
2023-10-09T11:15:06.391Z,13.88
2023-10-09T11:18:21.404Z,12.50
2023-10-09T11:21:23.123Z,12.35
2023-10-09T11:24:29.475Z,10.02
2023-10-09T11:27:34.114Z,10.27
2023-10-09T11:30:35.700Z,13.88
2023-10-09T11:33:46.786Z,16.17
2023-10-09T11:36:54.026Z,12.95
2023-10-09T11:39:58.679Z,11.20
2023-10-09T11:43:01.063Z,11.75
2023-10-09T11:46:34.340Z,11.40
2023-10-09T11:49:45.315Z,8.63
2023-10-09T11:53:18.440Z,11.68
2023-10-09T11:56:22.422Z,10.45
2023-10-09T11:59:24.589Z,9.57
2023-10-09T12:02:26.100Z,7.13
2023-10-09T12:05:29.282Z,8.52
2023-10-09T12:08:31.199Z,8.15
2023-10-09T12:11:32.973Z,8.30
2023-10-09T12:14:34.872Z,8.48
2023-10-09T12:17:36.303Z,9.30
2023-10-09T12:20:37.751Z,6.43
2023-10-09T12:23:39.068Z,11.38
2023-10-09T12:26:41.683Z,8.27
2023-10-09T12:29:48.043Z,7.45
2023-10-09T12:32:50.487Z,7.57
2023-10-09T12:35:52.468Z,7.00
2023-10-09T12:38:59.986Z,5.93
2023-10-09T12:42:09.672Z,8.60
2023-10-09T12:45:11.596Z,9.60
2023-10-09T12:48:15.736Z,8.55
2023-10-09T12:51:18.091Z,6.75
2023-10-09T12:54:21.261Z,6.05
2023-10-09T12:57:22.682Z,8.15
2023-10-09T13:00:26.889Z,9.48
2023-10-09T13:03:33.884Z,7.75
2023-10-09T13:06:39.243Z,6.13
2023-10-09T13:09:44.089Z,9.52
2023-10-09T13:12:45.750Z,7.32
2023-10-09T13:15:47.108Z,7.07
2023-10-09T13:18:51.220Z,7.95
2023-10-09T13:21:53.015Z,9.00
2023-10-09T13:25:04.646Z,9.45
2023-10-09T13:28:06.264Z,7.75
2023-10-09T13:31:12.138Z,8.38
2023-10-09T13:34:16.301Z,10.80
2023-10-09T13:37:23.003Z,9.68
2023-10-09T13:40:30.236Z,6.68
2023-10-09T13:43:31.660Z,7.40
2023-10-09T13:46:33.117Z,7.35
2023-10-09T13:49:34.984Z,6.03
2023-10-09T13:52:40.308Z,7.75
2023-10-09T13:55:44.510Z,8.32
2023-10-09T13:58:51.798Z,9.15
2023-10-09T14:01:56.166Z,8.30
2023-10-09T14:05:01.914Z,7.40
2023-10-09T14:08:05.363Z,9.35
2023-10-09T14:11:06.776Z,8.65
2023-10-09T14:14:13.063Z,6.38
2023-10-09T14:17:15.614Z,6.47
2023-10-09T14:20:32.899Z,8.38
2023-10-09T14:23:35.675Z,7.85
2023-10-09T14:26:37.177Z,6.78
2023-10-09T14:29:38.835Z,9.07
2023-10-09T14:32:49.128Z,7.78
2023-10-09T14:35:53.348Z,10.05
2023-10-09T14:38:56.210Z,7.28
2023-10-09T14:41:58.407Z,6.72
2023-10-09T14:44:59.842Z,7.75
2023-10-09T14:48:01.472Z,7.20
2023-10-09T14:51:06.067Z,8.70
2023-10-09T14:54:09.060Z,8.40
2023-10-09T14:57:12.610Z,9.90
2023-10-09T15:00:15.716Z,6.72
2023-10-09T15:03:20.805Z,8.13
2023-10-09T15:06:22.622Z,8.13
2023-10-09T15:09:24.214Z,6.95
2023-10-09T15:12:26.741Z,6.43
2023-10-09T15:15:32.054Z,11.65
2023-10-09T15:18:34.306Z,6.93
2023-10-09T15:21:35.730Z,7.95
2023-10-09T15:24:37.441Z,8.20
2023-10-09T15:27:40.280Z,8.52
2023-10-09T15:30:42.219Z,7.63
2023-10-09T15:33:44.320Z,6.25
2023-10-09T15:36:48.055Z,7.53
2023-10-09T15:39:50.923Z,6.60
2023-10-09T15:42:57.043Z,6.82
2023-10-09T15:45:59.815Z,8.23
2023-10-09T15:49:02.037Z,8.25
2023-10-09T15:52:03.460Z,9.25
2023-10-09T15:55:07.346Z,10.23
2023-10-09T15:58:09.855Z,7.53
2023-10-09T16:01:13.927Z,8.63
2023-10-09T16:04:18.255Z,7.25
2023-10-09T16:07:21.193Z,7.45
2023-10-09T16:10:23.548Z,8.45
2023-10-09T16:13:24.954Z,9.02
2023-10-09T16:16:30.347Z,8.32
2023-10-09T16:19:34.310Z,6.05
2023-10-09T16:22:35.644Z,7.65
2023-10-09T16:25:37.165Z,7.68
2023-10-09T16:28:40.706Z,7.40
2023-10-09T16:31:42.367Z,9.93
2023-10-09T16:34:45.294Z,7.38
2023-10-09T16:37:50.600Z,8.25
2023-10-09T16:40:55.721Z,8.15
2023-10-09T16:44:00.698Z,8.70
2023-10-09T16:47:02.358Z,8.27
2023-10-09T16:50:04.519Z,8.77
2023-10-09T16:53:05.968Z,8.23
2023-10-09T16:56:13.333Z,7.85
2023-10-09T16:59:17.732Z,8.35
2023-10-09T17:02:23.882Z,7.95
2023-10-09T17:05:31.432Z,10.35
2023-10-09T17:08:35.829Z,12.13
2023-10-09T17:11:37.754Z,7.32
2023-10-09T17:14:40.138Z,8.20
2023-10-09T17:17:50.785Z,10.30
2023-10-09T17:20:52.896Z,9.00
2023-10-09T17:23:59.398Z,10.70
2023-10-09T17:27:00.705Z,10.30
2023-10-09T17:30:02.092Z,8.38
2023-10-09T17:33:04.908Z,8.25
2023-10-09T17:36:07.179Z,10.02
2023-10-09T17:39:08.489Z,11.38
2023-10-09T17:42:10.408Z,9.10
2023-10-09T17:45:13.930Z,7.97
2023-10-09T17:48:18.428Z,10.52
2023-10-09T17:51:20.109Z,11.02
2023-10-09T17:54:24.508Z,9.68
2023-10-09T17:57:25.872Z,11.65
2023-10-09T18:00:27.360Z,9.85
2023-10-09T18:03:29.950Z,8.55
2023-10-09T18:06:33.269Z,10.93
2023-10-09T18:09:34.708Z,10.38
2023-10-09T18:12:36.090Z,10.10
2023-10-09T18:15:38.706Z,9.27
2023-10-09T18:18:51.345Z,8.65
2023-10-09T18:21:52.775Z,9.13
2023-10-09T18:24:54.142Z,12.63
2023-10-09T18:27:55.665Z,10.45
2023-10-09T18:30:57.167Z,9.57
2023-10-09T18:33:59.248Z,8.25
2023-10-09T18:37:00.891Z,8.35
2023-10-09T18:40:06.977Z,8.65
2023-10-09T18:43:09.503Z,8.20
2023-10-09T18:46:12.310Z,8.57
2023-10-09T18:49:14.766Z,7.35
2023-10-09T18:52:17.779Z,10.35
2023-10-09T18:55:19.429Z,10.73
2023-10-09T18:58:20.869Z,9.75
2023-10-09T19:01:23.879Z,7.15
2023-10-09T19:04:25.620Z,12.77
2023-10-09T19:07:28.206Z,8.77
2023-10-09T19:10:29.539Z,11.02
2023-10-09T19:13:30.966Z,8.52
2023-10-09T19:16:32.480Z,8.80
2023-10-09T19:19:36.153Z,12.15
2023-10-09T19:22:40.724Z,13.25
2023-10-09T19:25:42.828Z,9.90
2023-10-09T19:28:44.748Z,11.20
2023-10-09T19:31:47.218Z,9.82
2023-10-09T19:34:49.107Z,10.82
2023-10-09T19:37:51.511Z,10.52
2023-10-09T19:40:53.464Z,9.82
2023-10-09T19:43:55.067Z,9.07
2023-10-09T19:46:57.510Z,13.75
2023-10-09T19:49:59.778Z,12.88
2023-10-09T19:53:02.442Z,9.05
2023-10-09T19:56:05.728Z,9.10
2023-10-09T19:59:09.014Z,8.43
2023-10-09T20:02:10.591Z,10.45
2023-10-09T20:05:16.269Z,11.48
2023-10-09T20:08:17.840Z,9.52
2023-10-09T20:11:19.732Z,9.65
2023-10-09T20:14:21.543Z,9.32
2023-10-09T20:17:22.961Z,10.68
2023-10-09T20:20:24.393Z,10.60
2023-10-09T20:23:27.220Z,11.55
2023-10-09T20:26:28.791Z,11.32
2023-10-09T20:29:30.233Z,12.15
2023-10-09T20:32:32.626Z,9.70
2023-10-09T20:35:40.573Z,10.80
2023-10-09T20:38:42.089Z,10.57
2023-10-09T20:41:43.414Z,9.80
2023-10-09T20:44:44.757Z,10.85
2023-10-09T20:47:46.893Z,10.13
2023-10-09T20:50:49.524Z,11.38
2023-10-09T20:53:50.854Z,10.25
2023-10-09T20:56:52.469Z,8.65
2023-10-09T20:59:54.809Z,10.70
2023-10-09T21:02:56.553Z,8.40
2023-10-09T21:06:01.303Z,9.77
2023-10-09T21:09:03.207Z,10.13
2023-10-09T21:12:04.612Z,9.65
2023-10-09T21:15:07.679Z,12.63
2023-10-09T21:18:11.768Z,10.68
2023-10-09T21:21:14.636Z,8.60
2023-10-09T21:24:16.217Z,8.55
2023-10-09T21:27:17.984Z,10.98
2023-10-09T21:30:19.330Z,7.72
2023-10-09T21:33:20.742Z,10.75
2023-10-09T21:36:22.127Z,8.07
2023-10-09T21:39:23.573Z,9.27
2023-10-09T21:42:24.874Z,9.90
2023-10-09T21:45:27.937Z,9.70
2023-10-09T21:48:29.259Z,10.60
2023-10-09T21:51:30.762Z,8.38
2023-10-09T21:54:32.085Z,7.97
2023-10-09T21:57:33.401Z,8.95
2023-10-09T22:00:34.759Z,8.05
2023-10-09T22:03:37.025Z,10.45
2023-10-09T22:06:38.815Z,9.32
2023-10-09T22:09:40.971Z,9.73
2023-10-09T22:12:45.812Z,12.52
2023-10-09T22:15:47.393Z,9.90
2023-10-09T22:19:03.039Z,8.73
2023-10-09T22:22:12.622Z,11.35
2023-10-09T22:25:14.277Z,10.05
2023-10-09T22:28:15.802Z,8.73
2023-10-09T22:31:17.733Z,11.38
2023-10-09T22:34:20.877Z,10.20
2023-10-09T22:37:27.738Z,10.40
2023-10-09T22:40:29.064Z,9.95
2023-10-09T22:43:30.363Z,8.48
2023-10-09T22:46:31.720Z,9.77
2023-10-09T22:49:35.703Z,9.95
2023-10-09T22:52:37.039Z,12.85
2023-10-09T22:55:40.640Z,11.73
2023-10-09T22:58:52.342Z,9.90
2023-10-09T23:01:56.263Z,9.77
2023-10-09T23:05:04.720Z,9.93
2023-10-09T23:08:17.655Z,8.80
2023-10-09T23:11:26.351Z,8.88
2023-10-09T23:14:32.255Z,9.65
2023-10-09T23:17:47.922Z,10.15
2023-10-09T23:20:51.499Z,10.32
2023-10-09T23:24:09.523Z,11.02
2023-10-09T23:27:26.810Z,10.23
2023-10-09T23:30:28.954Z,12.30
2023-10-09T23:33:31.223Z,12.68
2023-10-09T23:36:32.689Z,12.25
2023-10-09T23:39:57.248Z,12.70
2023-10-09T23:42:59.018Z,12.90
2023-10-09T23:46:01.695Z,11.18
2023-10-09T23:49:07.286Z,11.40
2023-10-09T23:52:08.619Z,11.55
2023-10-09T23:55:13.444Z,10.50
2023-10-09T23:58:19.628Z,11.30
